createdAt,value
2023-04-03T00:01:28.488Z,74.28
2023-04-03T00:03:57.922Z,75.98
2023-04-03T00:06:26.019Z,74.79
2023-04-03T00:08:53.902Z,73.37
2023-04-03T00:11:21.686Z,75.02
2023-04-03T00:13:50.806Z,74.91
2023-04-03T00:16:20.126Z,74.40
2023-04-03T00:18:50.177Z,74.61
2023-04-03T00:21:19.400Z,74.23
2023-04-03T00:23:46.437Z,74.13
2023-04-03T00:26:13.710Z,74.89
2023-04-03T00:28:43.822Z,74.46
2023-04-03T00:31:14.586Z,74.59
2023-04-03T00:33:44.223Z,74.59
2023-04-03T00:36:14.156Z,74.36
2023-04-03T00:38:43.519Z,74.88
2023-04-03T00:41:10.666Z,74.85
2023-04-03T00:43:37.679Z,75.26
2023-04-03T00:46:05.562Z,74.60
2023-04-03T00:48:49.999Z,75.40
2023-04-03T00:51:25.371Z,75.57
2023-04-03T00:54:00.069Z,76.00
2023-04-03T00:56:31.416Z,75.71
2023-04-03T00:59:19.216Z,75.15
2023-04-03T01:01:46.361Z,75.48
2023-04-03T01:04:38.171Z,74.93
2023-04-03T01:07:18.499Z,75.77
2023-04-03T01:09:48.385Z,74.85
2023-04-03T01:12:30.338Z,76.24
2023-04-03T01:15:22.306Z,75.62
2023-04-03T01:17:52.509Z,75.78
2023-04-03T01:20:36.798Z,76.28
2023-04-03T01:23:12.912Z,75.97
2023-04-03T01:25:53.173Z,76.37
2023-04-03T01:28:34.099Z,76.05
2023-04-03T01:31:18.765Z,76.49
2023-04-03T01:33:46.066Z,76.45
2023-04-03T01:36:22.941Z,76.40
2023-04-03T01:38:52.901Z,76.92
2023-04-03T01:41:22.026Z,76.55
2023-04-03T01:43:54.320Z,77.33
2023-04-03T01:46:24.312Z,77.23
2023-04-03T01:48:51.431Z,76.49
2023-04-03T01:51:20.911Z,76.74
2023-04-03T01:53:47.950Z,76.99
2023-04-03T01:56:17.584Z,77.16
2023-04-03T01:58:44.544Z,77.25
2023-04-03T02:01:11.587Z,76.66
2023-04-03T02:03:38.742Z,76.20
2023-04-03T02:06:06.650Z,77.22
2023-04-03T02:08:38.279Z,77.12
2023-04-03T02:11:05.313Z,76.71
2023-04-03T02:13:32.367Z,76.89
2023-04-03T02:16:00.144Z,77.17
2023-04-03T02:18:27.181Z,77.39
2023-04-03T02:20:54.132Z,77.55
2023-04-03T02:23:23.361Z,77.08
2023-04-03T02:25:50.380Z,77.10
2023-04-03T02:28:20.546Z,77.25
2023-04-03T02:30:50.189Z,77.45
2023-04-03T02:33:17.297Z,77.69
2023-04-03T02:35:44.218Z,78.08
2023-04-03T02:38:13.835Z,77.60
2023-04-03T02:40:41.050Z,79.06
2023-04-03T02:43:08.134Z,78.19
2023-04-03T02:45:35.188Z,78.50
2023-04-03T02:48:02.419Z,79.07
2023-04-03T02:50:29.493Z,78.50
2023-04-03T02:53:01.001Z,79.66
2023-04-03T02:55:30.324Z,79.09
2023-04-03T02:57:57.261Z,79.20
2023-04-03T03:00:24.294Z,79.45
2023-04-03T03:02:51.311Z,91.05
2023-04-03T03:05:18.655Z,93.37
2023-04-03T03:07:45.900Z,90.73
2023-04-03T03:10:15.879Z,88.03
2023-04-03T03:12:45.205Z,86.72
2023-04-03T03:15:12.788Z,83.98
2023-04-03T03:17:39.918Z,82.55
2023-04-03T03:20:08.515Z,82.35
2023-04-03T03:22:36.118Z,82.03
2023-04-03T03:25:04.404Z,81.64
2023-04-03T03:27:31.876Z,81.78
2023-04-03T03:30:02.587Z,80.73
2023-04-03T03:32:29.571Z,80.29
2023-04-03T03:34:59.014Z,80.48
2023-04-03T03:37:25.899Z,79.88
2023-04-03T03:39:52.929Z,79.88
2023-04-03T03:42:20.082Z,80.45
2023-04-03T03:44:49.412Z,78.92
2023-04-03T03:47:18.640Z,78.31
2023-04-03T03:49:45.761Z,78.49
2023-04-03T03:52:15.150Z,78.80
2023-04-03T03:54:45.510Z,78.91
2023-04-03T03:57:12.913Z,79.02
2023-04-03T03:59:41.990Z,77.82
2023-04-03T04:02:11.777Z,78.48
2023-04-03T04:04:38.807Z,78.96
2023-04-03T04:07:06.174Z,79.23
2023-04-03T04:09:37.842Z,79.38
2023-04-03T04:12:07.973Z,79.43
2023-04-03T04:14:35.026Z,79.35
2023-04-03T04:17:03.512Z,79.85
2023-04-03T04:19:34.394Z,80.03
2023-04-03T04:22:07.273Z,80.39
2023-04-03T04:24:34.740Z,80.07
2023-04-03T04:27:01.621Z,80.64
2023-04-03T04:29:28.596Z,79.72
2023-04-03T04:31:58.277Z,79.64
2023-04-03T04:34:27.472Z,80.17
2023-04-03T04:36:54.793Z,80.18
2023-04-03T04:39:21.942Z,80.43
2023-04-03T04:41:51.603Z,80.02
2023-04-03T04:44:18.824Z,79.41
2023-04-03T04:46:48.510Z,79.10
2023-04-03T04:49:15.733Z,78.37
2023-04-03T04:51:52.001Z,79.52
2023-04-03T04:54:24.893Z,80.43
2023-04-03T04:56:52.102Z,78.49
2023-04-03T04:59:22.142Z,79.47
2023-04-03T05:01:49.394Z,79.49
2023-04-03T05:04:16.846Z,79.75
2023-04-03T05:06:43.980Z,79.44
2023-04-03T05:09:11.397Z,79.24
2023-04-03T05:11:38.441Z,79.24
2023-04-03T05:14:07.714Z,79.86
2023-04-03T05:16:35.053Z,79.24
2023-04-03T05:19:04.640Z,77.79
2023-04-03T05:21:33.502Z,77.69
2023-04-03T05:24:04.088Z,77.15
2023-04-03T05:26:33.033Z,77.40
2023-04-03T05:29:00.281Z,77.45
2023-04-03T05:31:30.747Z,76.58
2023-04-03T05:34:00.452Z,75.85
2023-04-03T05:36:27.786Z,75.76
2023-04-03T05:38:57.316Z,76.39
2023-04-03T05:41:25.051Z,76.20
2023-04-03T05:43:52.120Z,75.37
2023-04-03T05:46:24.082Z,75.20
2023-04-03T05:48:51.430Z,74.89
2023-04-03T05:51:39.921Z,73.94
2023-04-03T05:54:25.302Z,74.61
2023-04-03T05:56:55.740Z,74.10
2023-04-03T05:59:25.333Z,74.27
2023-04-03T06:01:52.340Z,74.14
2023-04-03T06:04:20.206Z,73.30
2023-04-03T06:06:58.704Z,73.60
2023-04-03T06:09:30.093Z,73.47
2023-04-03T06:12:00.775Z,72.65
2023-04-03T06:14:32.861Z,72.29
2023-04-03T06:17:00.705Z,72.24
2023-04-03T06:19:30.201Z,71.01
2023-04-03T06:21:57.615Z,71.23
2023-04-03T06:24:26.240Z,71.09
2023-04-03T06:26:56.514Z,70.58
2023-04-03T06:29:28.629Z,69.72
2023-04-03T06:31:55.895Z,69.20
2023-04-03T06:34:25.065Z,67.61
2023-04-03T06:36:51.963Z,65.73
2023-04-03T06:39:24.687Z,65.25
2023-04-03T06:41:54.862Z,64.61
2023-04-03T06:44:24.166Z,63.19
2023-04-03T06:46:52.745Z,60.29
2023-04-03T06:49:19.877Z,58.65
2023-04-03T06:51:47.079Z,56.38
2023-04-03T06:54:14.145Z,54.29
2023-04-03T06:56:43.457Z,52.82
2023-04-03T06:59:16.566Z,49.94
2023-04-03T07:01:43.770Z,48.82
2023-04-03T07:04:13.666Z,46.60
2023-04-03T07:06:45.697Z,46.17
2023-04-03T07:09:12.797Z,44.46
2023-04-03T07:11:42.541Z,43.40
2023-04-03T07:14:09.698Z,42.98
2023-04-03T07:16:38.241Z,41.93
2023-04-03T07:19:06.502Z,40.83
2023-04-03T07:21:33.650Z,40.22
2023-04-03T07:24:00.654Z,39.01
2023-04-03T07:26:27.946Z,36.93
2023-04-03T07:28:58.787Z,36.15
2023-04-03T07:31:30.650Z,34.76
2023-04-03T07:34:00.225Z,33.45
2023-04-03T07:36:30.630Z,32.00
2023-04-03T07:38:57.706Z,31.11
2023-04-03T07:41:24.646Z,30.75
2023-04-03T07:43:51.979Z,29.21
2023-04-03T07:46:19.019Z,28.58
2023-04-03T07:48:46.149Z,29.51
2023-04-03T07:51:14.003Z,28.99
2023-04-03T07:53:41.238Z,28.04
2023-04-03T07:56:09.370Z,27.17
2023-04-03T07:58:39.204Z,25.93
2023-04-03T08:01:07.222Z,25.00
2023-04-03T08:03:34.307Z,25.74
2023-04-03T08:06:15.768Z,25.44
2023-04-03T08:08:46.789Z,24.72
2023-04-03T08:11:13.887Z,25.78
2023-04-03T08:13:42.619Z,24.75
2023-04-03T08:16:17.924Z,24.45
2023-04-03T08:18:47.455Z,23.82
2023-04-03T08:21:16.921Z,23.26
2023-04-03T08:23:44.056Z,24.25
2023-04-03T08:26:21.311Z,24.03
2023-04-03T08:28:49.470Z,24.83
2023-04-03T08:31:22.259Z,25.76
2023-04-03T08:33:52.636Z,24.58
2023-04-03T08:36:29.226Z,23.39
2023-04-03T08:38:58.120Z,23.84
2023-04-03T08:41:44.797Z,22.67
2023-04-03T08:44:43.351Z,22.59
2023-04-03T08:47:34.929Z,22.18
2023-04-03T08:50:06.438Z,21.42
2023-04-03T08:52:38.508Z,22.24
2023-04-03T08:55:28.377Z,20.84
2023-04-03T08:58:27.556Z,18.97
2023-04-03T09:01:18.943Z,19.65
2023-04-03T09:03:46.218Z,19.87
2023-04-03T09:06:18.783Z,18.90
2023-04-03T09:09:03.191Z,19.90
2023-04-03T09:11:48.367Z,18.20
2023-04-03T09:14:40.833Z,18.07
2023-04-03T09:17:11.416Z,17.89
2023-04-03T09:20:03.396Z,18.79
2023-04-03T09:22:45.722Z,19.99
2023-04-03T09:25:24.299Z,20.22
2023-04-03T09:27:52.358Z,18.61
2023-04-03T09:30:27.648Z,19.25
2023-04-03T09:32:58.447Z,18.79
2023-04-03T09:35:44.665Z,17.38
2023-04-03T09:38:20.364Z,18.95
2023-04-03T09:41:05.060Z,20.18
2023-04-03T09:43:35.444Z,20.59
2023-04-03T09:46:31.396Z,19.72
2023-04-03T09:49:09.972Z,18.61
2023-04-03T09:51:41.891Z,17.12
2023-04-03T09:54:38.662Z,16.66
2023-04-03T09:57:14.801Z,17.41
2023-04-03T09:59:59.323Z,17.27
2023-04-03T10:02:39.311Z,17.67
2023-04-03T10:05:40.941Z,16.12
2023-04-03T10:08:17.529Z,16.10
2023-04-03T10:10:50.140Z,16.58
2023-04-03T10:13:25.602Z,15.95
2023-04-03T10:16:28.497Z,15.58
2023-04-03T10:19:14.744Z,15.47
2023-04-03T10:21:53.716Z,15.27
2023-04-03T10:24:37.817Z,15.61
2023-04-03T10:27:23.078Z,15.37
2023-04-03T10:30:06.108Z,16.63
2023-04-03T10:32:41.937Z,19.65
2023-04-03T10:35:33.803Z,18.51
2023-04-03T10:38:37.865Z,19.23
2023-04-03T10:42:16.062Z,20.91
2023-04-03T10:44:59.904Z,21.10
2023-04-03T10:47:47.930Z,21.56
2023-04-03T10:50:33.095Z,23.99
2023-04-03T10:53:20.910Z,24.94
2023-04-03T10:56:14.844Z,23.84
2023-04-03T10:58:46.377Z,21.38
2023-04-03T11:01:25.821Z,19.11
2023-04-03T11:04:02.104Z,19.23
2023-04-03T11:07:23.190Z,17.71
2023-04-03T11:09:58.288Z,17.96
2023-04-03T11:12:54.255Z,20.04
2023-04-03T11:15:23.719Z,18.95
2023-04-03T11:18:11.762Z,19.72
2023-04-03T11:20:48.633Z,21.68
2023-04-03T11:23:46.017Z,24.62
2023-04-03T11:26:26.585Z,27.04
2023-04-03T11:29:01.632Z,27.58
2023-04-03T11:31:59.285Z,27.82
2023-04-03T11:34:44.363Z,26.92
2023-04-03T11:37:39.627Z,21.36
2023-04-03T11:40:31.989Z,22.02
2023-04-03T11:43:23.770Z,24.06
2023-04-03T11:46:08.436Z,26.82
2023-04-03T11:48:35.647Z,28.74
2023-04-03T11:51:28.624Z,28.73
2023-04-03T11:53:57.792Z,28.95
2023-04-03T11:56:24.721Z,25.52
2023-04-03T11:59:26.731Z,20.46
2023-04-03T12:01:55.965Z,18.76
2023-04-03T12:04:26.592Z,19.95
2023-04-03T12:07:20.801Z,22.01
2023-04-03T12:09:47.652Z,22.14
2023-04-03T12:12:31.394Z,21.74
2023-04-03T12:15:20.610Z,23.57
2023-04-03T12:17:48.568Z,24.12
2023-04-03T12:20:50.236Z,26.21
2023-04-03T12:23:34.627Z,27.24
2023-04-03T12:26:22.809Z,23.55
2023-04-03T12:28:52.593Z,21.22
2023-04-03T12:31:27.597Z,23.01
2023-04-03T12:34:06.756Z,25.71
2023-04-03T12:36:43.081Z,28.91
2023-04-03T12:39:57.076Z,30.11
2023-04-03T12:43:15.803Z,31.05
2023-04-03T12:45:53.637Z,30.03
2023-04-03T12:48:27.289Z,30.75
2023-04-03T12:50:55.999Z,30.07
2023-04-03T12:53:31.399Z,27.53
2023-04-03T12:56:32.187Z,25.52
2023-04-03T12:59:21.624Z,26.74
2023-04-03T13:02:02.488Z,28.14
2023-04-03T13:04:32.412Z,27.81
2023-04-03T13:07:02.766Z,23.86
2023-04-03T13:09:33.569Z,21.05
2023-04-03T13:12:18.990Z,18.91
2023-04-03T13:15:14.723Z,18.56
2023-04-03T13:17:45.154Z,17.78
2023-04-03T13:20:23.651Z,17.24
2023-04-03T13:22:58.658Z,16.20
2023-04-03T13:25:31.596Z,17.70
2023-04-03T13:28:12.667Z,21.55
2023-04-03T13:30:56.984Z,22.99
2023-04-03T13:33:29.974Z,23.94
2023-04-03T13:36:05.403Z,24.37
2023-04-03T13:38:39.488Z,24.71
2023-04-03T13:41:27.431Z,23.51
2023-04-03T13:44:03.392Z,21.03
2023-04-03T13:46:37.944Z,20.00
2023-04-03T13:49:33.178Z,19.55
2023-04-03T13:52:07.998Z,19.51
2023-04-03T13:54:40.465Z,19.67
2023-04-03T13:57:16.964Z,20.65
2023-04-03T13:59:44.857Z,20.81
2023-04-03T14:02:33.669Z,22.04
2023-04-03T14:05:05.002Z,22.38
2023-04-03T14:07:35.344Z,21.73
2023-04-03T14:10:02.706Z,21.46
2023-04-03T14:12:40.238Z,20.91
2023-04-03T14:15:21.270Z,21.47
2023-04-03T14:17:48.439Z,22.04
2023-04-03T14:20:22.836Z,21.49
2023-04-03T14:22:50.160Z,22.55
2023-04-03T14:25:19.125Z,22.75
2023-04-03T14:27:50.034Z,22.05
2023-04-03T14:30:24.366Z,21.66
2023-04-03T14:32:51.546Z,22.47
2023-04-03T14:35:22.124Z,23.86
2023-04-03T14:37:54.768Z,25.98
2023-04-03T14:40:29.187Z,26.69
2023-04-03T14:43:00.800Z,26.52
2023-04-03T14:45:27.840Z,25.64
2023-04-03T14:47:57.759Z,24.77
2023-04-03T14:50:30.216Z,25.31
2023-04-03T14:53:00.166Z,26.17
2023-04-03T14:55:28.670Z,26.49
2023-04-03T14:57:58.432Z,26.76
2023-04-03T15:00:27.854Z,27.07
2023-04-03T15:02:55.423Z,28.05
2023-04-03T15:05:25.315Z,29.42
2023-04-03T15:07:57.300Z,29.41
2023-04-03T15:10:32.382Z,29.40
2023-04-03T15:12:59.524Z,28.61
2023-04-03T15:15:31.101Z,27.85
2023-04-03T15:17:59.348Z,28.77
2023-04-03T15:20:34.346Z,27.98
2023-04-03T15:23:02.445Z,27.62
2023-04-03T15:25:32.627Z,28.77
2023-04-03T15:28:02.780Z,28.61
2023-04-03T15:30:29.864Z,28.80
2023-04-03T15:32:59.449Z,29.76
2023-04-03T15:35:30.357Z,29.82
2023-04-03T15:37:57.497Z,30.15
2023-04-03T15:40:24.569Z,29.81
2023-04-03T15:42:53.245Z,29.52
2023-04-03T15:45:22.362Z,30.70
2023-04-03T15:47:49.771Z,29.26
2023-04-03T15:50:16.854Z,29.13
2023-04-03T15:52:44.439Z,28.66
2023-04-03T15:55:11.442Z,30.40
2023-04-03T16:00:11.640Z,30.06
2023-04-03T16:02:38.908Z,30.96
2023-04-03T16:05:06.850Z,29.92
2023-04-03T16:07:36.506Z,30.59
2023-04-03T16:10:07.680Z,31.41
2023-04-03T16:12:34.839Z,32.92
2023-04-03T16:15:02.097Z,33.06
2023-04-03T16:17:29.575Z,33.51
2023-04-03T16:19:56.994Z,33.18
2023-04-03T16:22:30.924Z,33.69
2023-04-03T16:24:58.195Z,33.37
2023-04-03T16:27:28.677Z,33.85
2023-04-03T16:29:58.713Z,34.42
2023-04-03T16:32:30.919Z,34.55
2023-04-03T16:34:59.319Z,35.05
2023-04-03T16:37:27.244Z,34.97
2023-04-03T16:39:55.935Z,34.85
2023-04-03T16:42:22.941Z,35.44
2023-04-03T16:44:49.914Z,34.89
2023-04-03T16:47:20.217Z,35.89
2023-04-03T16:49:54.133Z,36.23
2023-04-03T16:52:23.893Z,35.40
2023-04-03T16:54:52.704Z,35.84
2023-04-03T16:57:21.526Z,35.56
2023-04-03T16:59:51.599Z,36.00
2023-04-03T17:02:22.646Z,35.24
2023-04-03T17:04:52.859Z,35.56
2023-04-03T17:07:24.464Z,35.21
2023-04-03T17:09:54.937Z,35.60
2023-04-03T17:12:27.118Z,34.75
2023-04-03T17:14:57.200Z,35.12
2023-04-03T17:17:29.526Z,35.72
2023-04-03T17:19:57.175Z,36.40
2023-04-03T17:22:27.097Z,37.00
2023-04-03T17:24:54.119Z,37.30
2023-04-03T17:27:21.325Z,38.20
2023-04-03T17:29:50.586Z,37.99
2023-04-03T17:32:17.913Z,38.09
2023-04-03T17:34:48.356Z,38.77
2023-04-03T17:37:18.086Z,39.28
2023-04-03T17:39:46.894Z,39.60
2023-04-03T17:42:13.941Z,39.76
2023-04-03T17:44:43.257Z,40.00
2023-04-03T17:47:10.736Z,39.78
2023-04-03T17:49:40.261Z,39.63
2023-04-03T17:52:07.213Z,40.83
2023-04-03T17:54:34.641Z,40.88
2023-04-03T17:57:04.740Z,41.84
2023-04-03T17:59:34.731Z,41.89
2023-04-03T18:02:04.201Z,42.04
2023-04-03T18:04:33.229Z,42.48
2023-04-03T18:07:02.097Z,42.45
2023-04-03T18:09:36.441Z,42.71
2023-04-03T18:12:07.340Z,43.63
2023-04-03T18:14:36.542Z,42.18
2023-04-03T18:17:03.944Z,42.55
2023-04-03T18:19:30.976Z,43.16
2023-04-03T18:22:06.699Z,42.98
2023-04-03T18:24:37.152Z,43.30
2023-04-03T18:27:18.807Z,43.41
2023-04-03T18:29:53.101Z,43.91
2023-04-03T18:32:24.263Z,43.78
2023-04-03T18:34:51.550Z,43.86
2023-04-03T18:37:19.121Z,42.93
2023-04-03T18:39:48.273Z,43.36
2023-04-03T18:42:20.231Z,44.52
2023-04-03T18:44:55.155Z,44.86
2023-04-03T18:47:22.216Z,44.66
2023-04-03T18:49:49.293Z,44.52
2023-04-03T18:52:16.274Z,45.15
2023-04-03T18:54:43.362Z,45.46
2023-04-03T18:57:12.848Z,45.69
2023-04-03T18:59:44.396Z,45.76
2023-04-03T19:02:14.225Z,45.57
2023-04-03T19:04:44.185Z,45.96
2023-04-03T19:07:11.546Z,46.25
2023-04-03T19:09:40.937Z,46.52
2023-04-03T19:12:08.301Z,46.67
2023-04-03T19:14:35.572Z,46.88
2023-04-03T19:17:04.165Z,46.82
2023-04-03T19:19:33.489Z,47.18
2023-04-03T19:22:00.699Z,47.58
2023-04-03T19:24:27.999Z,47.48
2023-04-03T19:26:57.488Z,47.67
2023-04-03T19:29:27.466Z,48.12
2023-04-03T19:31:54.729Z,47.98
2023-04-03T19:34:22.003Z,48.65
2023-04-03T19:36:52.276Z,48.59
2023-04-03T19:39:19.313Z,48.94
2023-04-03T19:41:47.088Z,49.14
2023-04-03T19:44:16.560Z,49.11
2023-04-03T19:46:51.353Z,49.04
2023-04-03T19:49:20.020Z,48.81
2023-04-03T19:51:49.416Z,48.75
2023-04-03T19:54:19.600Z,48.75
2023-04-03T19:56:49.084Z,48.24
2023-04-03T19:59:19.089Z,49.19
2023-04-03T20:01:46.446Z,49.75
2023-04-03T20:04:16.571Z,49.53
2023-04-03T20:06:43.583Z,49.57
2023-04-03T20:09:10.974Z,49.76
2023-04-03T20:11:40.377Z,50.52
2023-04-03T20:14:07.734Z,49.85
2023-04-03T20:16:38.067Z,50.63
2023-04-03T20:19:07.849Z,50.09
2023-04-03T20:21:35.080Z,50.14
2023-04-03T20:24:04.401Z,50.56
2023-04-03T20:26:42.256Z,50.45
2023-04-03T20:29:12.183Z,50.98
2023-04-03T20:31:42.233Z,50.59
2023-04-03T20:34:11.930Z,50.30
2023-04-03T20:36:39.111Z,50.90
2023-04-03T20:39:06.407Z,50.52
2023-04-03T20:41:37.875Z,51.21
2023-04-03T20:44:05.734Z,51.35
2023-04-03T20:46:48.827Z,51.94
2023-04-03T20:49:23.248Z,51.87
2023-04-03T20:51:53.010Z,52.24
2023-04-03T20:54:20.481Z,52.47
2023-04-03T20:56:49.951Z,52.41
2023-04-03T20:59:18.870Z,51.89
2023-04-03T21:01:47.573Z,51.22
2023-04-03T21:04:30.406Z,50.88
2023-04-03T21:07:54.563Z,51.53
2023-04-03T21:11:23.564Z,52.46
2023-04-03T21:14:48.592Z,52.86
2023-04-03T21:17:15.824Z,51.89
2023-04-03T21:19:51.481Z,51.87
2023-04-03T21:22:20.408Z,51.92
2023-04-03T21:24:48.427Z,51.63
2023-04-03T21:27:16.029Z,51.80
2023-04-03T21:29:46.348Z,51.30
2023-04-03T21:32:15.789Z,50.65
2023-04-03T21:34:42.919Z,50.69
2023-04-03T21:37:11.925Z,50.67
2023-04-03T21:39:38.963Z,50.68
2023-04-03T21:42:07.458Z,50.60
2023-04-03T21:44:37.183Z,52.20
2023-04-03T21:47:05.066Z,51.96
2023-04-03T21:49:34.360Z,51.71
2023-04-03T21:52:03.636Z,51.56
2023-04-03T21:54:30.705Z,51.41
2023-04-03T21:56:57.742Z,51.19
2023-04-03T21:59:27.389Z,50.94
2023-04-03T22:01:54.547Z,50.86
2023-04-03T22:04:26.706Z,50.48
2023-04-03T22:06:53.699Z,50.20
2023-04-03T22:09:20.816Z,50.17
2023-04-03T22:11:52.627Z,50.04
2023-04-03T22:14:20.367Z,50.25
2023-04-03T22:16:47.632Z,50.49
2023-04-03T22:19:14.823Z,50.40
2023-04-03T22:21:43.859Z,50.60
2023-04-03T22:24:10.798Z,50.99
2023-04-03T22:26:38.905Z,51.25
2023-04-03T22:29:06.127Z,51.13
2023-04-03T22:31:33.354Z,50.75
2023-04-03T22:34:04.243Z,50.59
2023-04-03T22:36:31.302Z,50.59
2023-04-03T22:38:58.757Z,50.57
2023-04-03T22:41:28.084Z,50.42
2023-04-03T22:43:59.107Z,50.89
2023-04-03T22:46:29.051Z,50.64
2023-04-03T22:48:56.152Z,51.20
2023-04-03T22:51:25.493Z,50.74
2023-04-03T22:53:52.473Z,50.78
2023-04-03T22:56:23.944Z,51.23
2023-04-03T22:58:52.872Z,51.92
2023-04-03T23:01:20.355Z,50.65
2023-04-03T23:03:47.351Z,51.45
2023-04-03T23:06:16.874Z,50.86
2023-04-03T23:08:44.829Z,51.87
2023-04-03T23:11:14.274Z,51.69
2023-04-03T23:13:43.594Z,51.81
2023-04-03T23:16:13.248Z,51.52
2023-04-03T23:18:43.885Z,51.97
2023-04-03T23:21:11.293Z,51.83
2023-04-03T23:23:40.683Z,50.84
2023-04-03T23:26:09.653Z,51.91
2023-04-03T23:28:37.070Z,51.89
2023-04-03T23:31:07.281Z,51.99
2023-04-03T23:33:34.677Z,51.33
2023-04-03T23:36:10.274Z,51.85
2023-04-03T23:38:39.811Z,51.41
2023-04-03T23:41:09.042Z,52.00
2023-04-03T23:43:36.176Z,52.90
2023-04-03T23:46:03.423Z,52.89
2023-04-03T23:48:33.113Z,53.27
2023-04-03T23:51:00.016Z,52.64
2023-04-03T23:53:29.649Z,53.11
2023-04-03T23:55:56.737Z,53.44
2023-04-03T23:58:23.798Z,52.98
